Irish Corners, New York
Current Conditions -  °F | °C
As of 5:53 PM on Wednesday 22 Oct 2014 (Local Time) from KMSS Reporting Station
Overcast Overcast  
Wind Chill: 50°   Ceiling: 6000
Heat Index: 50°   Visibility: 10mi
Dew Point: 40°   Wind: 6mph
Humidity: 68%   Direction: 20°NNE
Pressure: 30.23"   Gusts: NA
Location:  44.8293°N, 74.5271°W
Report Text: KMSS 222153Z AUTO 02005KT 10SM OVC060 10/04 A3023 RMK AO2 SLP239 T01000044
Loading
Personal Weather Stations






























Interactive Weather Map
Tropical Storm Tracking
New forecast layout! Learn more

10-Day Weather Forecast

Advertisements
Track Severe Weather on mobile